Time;durP1;ratioP1;P1;durP2;ratioP2;P2;SDS_P1;SDS_P2;PMS_P1;PMS_P2;Temp;Humidity;BMP_temperature;BMP_pressure;BME280_temperature;BME280_humidity;BME280_pressure;Samples;Min_cycle;Max_cycle;Signal;HPM_P1;HPM_P2
2023/10/19 00:01:47;;;;;;;;;;;12.50;90.40;;;;;;5066055;28;19912;-84
2023/10/19 00:04:13;;;;;;;;;;;12.50;90.30;;;;;;5066714;28;20332;-84
2023/10/19 00:06:40;;;;;;;;;;;12.50;90.20;;;;;;5070306;28;20006;-84
2023/10/19 00:09:11;;;;;;;;;;;12.60;90.10;;;;;;5073165;28;19912;-84
2023/10/19 00:11:37;;;;;;;;;;;12.60;90.20;;;;;;5066616;28;19944;-84
2023/10/19 00:14:03;;;;;;;;;;;12.60;90.10;;;;;;5079049;28;19917;-83
2023/10/19 00:16:35;;;;;;;;;;;12.70;89.60;;;;;;5067093;28;19917;-83
2023/10/19 00:19:03;;;;;;;;;;;12.60;89.70;;;;;;5071639;28;19920;-84
2023/10/19 00:21:29;;;;;;;;;;;12.80;89.90;;;;;;5061259;28;19920;-84
2023/10/19 00:24:04;;;;;;;;;;;12.70;89.80;;;;;;5075140;28;19910;-84
2023/10/19 00:26:30;;;;;;;;;;;12.60;89.90;;;;;;5069265;28;20365;-85
2023/10/19 00:28:56;;;;;;;;;;;12.80;89.90;;;;;;5071485;28;19920;-83
2023/10/19 00:31:22;;;;;;;;;;;12.80;90.00;;;;;;5076864;28;19916;-83
2023/10/19 00:33:51;;;;;;;;;;;12.80;90.10;;;;;;5064754;28;19912;-84
2023/10/19 00:36:20;;;;;;;;;;;12.80;90.00;;;;;;5062599;28;19959;-85
2023/10/19 00:41:19;;;;;;;;;;;13.10;89.80;;;;;;5069856;28;20329;-83
2023/10/19 00:43:45;;;;;;;;;;;13.10;89.40;;;;;;5070288;28;20351;-84
2023/10/19 00:49:05;;;;;;;;;;;13.10;89.70;;;;;;5074121;28;19916;-82
2023/10/19 00:54:10;;;;;;;;;;;13.10;89.90;;;;;;5081575;28;19913;-82
2023/10/19 00:56:36;;;;;;;;;;;13.20;89.50;;;;;;5089639;28;19935;-83
2023/10/19 01:04:55;;;;;;;;;;;13.30;89.20;;;;;;5078831;28;20389;-83
2023/10/19 01:07:22;;;;;;;;;;;13.30;89.10;;;;;;5078413;28;21229;-83
2023/10/19 01:09:52;;;;;;;;;;;13.30;89.50;;;;;;5075507;28;20012;-84
2023/10/19 01:15:07;;;;;;;;;;;13.40;89.60;;;;;;5070268;28;20489;-84
2023/10/19 01:17:39;;;;;;;;;;;13.40;89.50;;;;;;5084217;28;19916;-84
2023/10/19 01:20:52;;;;;;;;;;;13.50;89.30;;;;;;5089687;28;19913;-84
2023/10/19 01:25:36;;;;;;;;;;;13.50;89.70;;;;;;5073106;28;19915;-83
2023/10/19 01:28:07;;;;;;;;;;;13.60;89.70;;;;;;5081805;28;19908;-82
2023/10/19 01:30:33;;;;;;;;;;;13.40;89.70;;;;;;5081649;28;20003;-84
2023/10/19 01:32:59;;;;;;;;;;;13.40;90.00;;;;;;5085635;28;19969;-83
2023/10/19 01:35:24;;;;;;;;;;;13.40;90.30;;;;;;5076456;28;19920;-83
2023/10/19 01:37:50;;;;;;;;;;;13.50;90.40;;;;;;5084758;28;19944;-84
2023/10/19 01:40:20;;;;;;;;;;;13.40;90.30;;;;;;5080881;28;19931;-83
2023/10/19 01:42:46;;;;;;;;;;;13.50;90.30;;;;;;5075696;28;20368;-83
2023/10/19 01:45:11;;;;;;;;;;;13.60;90.00;;;;;;5073130;28;19908;-83
2023/10/19 01:47:37;;;;;;;;;;;13.60;90.00;;;;;;5078292;28;19962;-83
2023/10/19 01:50:05;;;;;;;;;;;13.60;90.00;;;;;;5073150;28;19926;-82
2023/10/19 01:52:30;;;;;;;;;;;13.60;90.10;;;;;;5074585;28;19920;-83
2023/10/19 01:55:07;;;;;;;;;;;13.60;90.30;;;;;;5077901;28;19931;-83
2023/10/19 01:57:34;;;;;;;;;;;13.80;90.00;;;;;;5070067;28;19916;-83
2023/10/19 02:00:08;;;;;;;;;;;13.80;89.90;;;;;;5080869;28;19913;-82
2023/10/19 02:02:35;;;;;;;;;;;13.70;90.20;;;;;;5066232;28;19999;-83
2023/10/19 02:05:04;;;;;;;;;;;13.70;89.90;;;;;;5066386;28;20431;-83
2023/10/19 02:07:29;;;;;;;;;;;13.70;90.10;;;;;;5064119;28;19923;-82
2023/10/19 02:09:55;;;;;;;;;;;13.60;90.30;;;;;;5062989;28;19964;-83
2023/10/19 02:12:21;;;;;;;;;;;13.70;90.20;;;;;;5073646;28;19912;-83
2023/10/19 02:14:47;;;;;;;;;;;13.80;90.20;;;;;;5072516;28;20279;-83
2023/10/19 02:17:14;;;;;;;;;;;13.80;90.00;;;;;;5084743;28;19984;-83
2023/10/19 02:19:40;;;;;;;;;;;13.80;90.10;;;;;;5062374;28;19912;-83
2023/10/19 02:22:11;;;;;;;;;;;13.80;90.10;;;;;;5073077;28;19993;-84
2023/10/19 02:24:37;;;;;;;;;;;13.70;90.30;;;;;;5060347;28;19909;-83
2023/10/19 02:27:02;;;;;;;;;;;13.80;90.20;;;;;;5084066;28;19924;-82
2023/10/19 02:29:28;;;;;;;;;;;13.90;90.10;;;;;;5072639;28;20405;-83
2023/10/19 02:31:55;;;;;;;;;;;13.90;89.70;;;;;;5068563;28;19912;-84
2023/10/19 02:34:22;;;;;;;;;;;13.80;89.90;;;;;;5076629;28;19909;-83
2023/10/19 02:36:48;;;;;;;;;;;13.80;90.30;;;;;;5106110;22;19918;-80
2023/10/19 02:39:14;;;;;;;;;;;13.70;90.40;;;;;;5044158;28;20357;-80
2023/10/19 02:41:44;;;;;;;;;;;13.70;90.50;;;;;;5053121;28;19919;-80
2023/10/19 02:46:42;;;;;;;;;;;13.80;90.30;;;;;;5066733;28;19913;-80
2023/10/19 02:49:11;;;;;;;;;;;13.80;90.20;;;;;;5055604;28;19927;-81
2023/10/19 02:51:44;;;;;;;;;;;13.70;90.40;;;;;;5060859;28;20405;-81
2023/10/19 02:54:16;;;;;;;;;;;13.80;90.40;;;;;;5052010;28;19912;-81
2023/10/19 02:56:42;;;;;;;;;;;13.70;90.40;;;;;;5058400;28;19927;-81
2023/10/19 02:59:09;;;;;;;;;;;13.80;90.60;;;;;;5067966;28;19934;-82
2023/10/19 03:01:34;;;;;;;;;;;13.70;90.50;;;;;;5060634;28;19917;-82
2023/10/19 03:04:00;;;;;;;;;;;13.70;90.60;;;;;;5059802;28;19920;-81
2023/10/19 03:06:32;;;;;;;;;;;13.70;90.80;;;;;;5053194;28;19916;-82
2023/10/19 03:08:58;;;;;;;;;;;13.70;90.80;;;;;;5066978;28;19912;-81
2023/10/19 03:11:24;;;;;;;;;;;13.60;91.00;;;;;;5054802;28;20332;-82
2023/10/19 03:13:50;;;;;;;;;;;13.70;90.80;;;;;;5058131;28;19920;-81
2023/10/19 03:16:15;;;;;;;;;;;13.80;90.90;;;;;;5054414;28;19917;-81
2023/10/19 03:18:41;;;;;;;;;;;13.80;90.40;;;;;;5055188;28;19912;-80
2023/10/19 03:21:07;;;;;;;;;;;13.80;90.70;;;;;;5053360;28;19913;-81
2023/10/19 03:23:34;;;;;;;;;;;13.70;90.70;;;;;;5060224;28;19912;-81
2023/10/19 03:26:22;;;;;;;;;;;13.70;90.90;;;;;;5067484;28;19908;-81
2023/10/19 03:28:48;;;;;;;;;;;13.70;90.90;;;;;;5047370;28;20331;-82
2023/10/19 03:31:17;;;;;;;;;;;13.70;91.10;;;;;;5065679;28;19913;-82
2023/10/19 03:33:44;;;;;;;;;;;13.70;91.00;;;;;;5060244;28;19908;-82
2023/10/19 03:36:13;;;;;;;;;;;13.70;91.20;;;;;;5060120;28;19919;-81
2023/10/19 03:38:40;;;;;;;;;;;13.70;91.20;;;;;;5060069;28;20374;-81
2023/10/19 03:41:07;;;;;;;;;;;13.70;91.20;;;;;;5052754;28;19919;-81
2023/10/19 03:43:33;;;;;;;;;;;13.70;91.20;;;;;;5066092;28;19923;-79
2023/10/19 03:45:59;;;;;;;;;;;13.60;91.10;;;;;;5074972;28;19920;-82
2023/10/19 03:48:30;;;;;;;;;;;13.70;91.20;;;;;;5054868;28;20374;-81
2023/10/19 03:50:56;;;;;;;;;;;13.70;91.20;;;;;;5055918;28;19916;-82
2023/10/19 03:53:22;;;;;;;;;;;13.70;91.40;;;;;;5056161;28;19912;-81
2023/10/19 03:55:49;;;;;;;;;;;13.60;91.40;;;;;;5068712;28;19916;-80
2023/10/19 03:58:15;;;;;;;;;;;13.60;91.50;;;;;;5052641;28;20398;-81
2023/10/19 04:00:42;;;;;;;;;;;13.60;91.50;;;;;;5055280;28;19908;-81
2023/10/19 04:03:07;;;;;;;;;;;13.60;91.70;;;;;;5073518;28;19999;-80
2023/10/19 04:05:38;;;;;;;;;;;13.60;91.70;;;;;;5060393;28;20007;-80
2023/10/19 04:08:12;;;;;;;;;;;13.60;91.60;;;;;;5068465;28;19916;-79
2023/10/19 04:10:38;;;;;;;;;;;13.60;91.70;;;;;;5065058;28;20362;-81
2023/10/19 04:13:04;;;;;;;;;;;13.60;91.70;;;;;;5066092;28;19913;-81
2023/10/19 04:15:33;;;;;;;;;;;13.60;91.70;;;;;;5062690;28;20290;-81
2023/10/19 04:18:00;;;;;;;;;;;13.60;91.80;;;;;;5055095;28;20004;-81
2023/10/19 04:22:51;;;;;;;;;;;13.60;91.90;;;;;;5069138;28;19916;-81
2023/10/19 04:25:21;;;;;;;;;;;13.60;91.80;;;;;;5073633;28;19909;-80
2023/10/19 04:27:47;;;;;;;;;;;13.60;91.90;;;;;;5059899;28;19917;-81
2023/10/19 04:30:16;;;;;;;;;;;13.60;91.90;;;;;;5062606;28;19913;-81
2023/10/19 04:32:42;;;;;;;;;;;13.60;91.90;;;;;;5055025;28;19913;-81
2023/10/19 04:35:09;;;;;;;;;;;13.60;91.90;;;;;;5057408;28;19963;-81
2023/10/19 04:37:35;;;;;;;;;;;13.60;91.90;;;;;;5073009;28;19923;-82
2023/10/19 04:40:00;;;;;;;;;;;13.70;92.00;;;;;;5057317;28;20007;-81
2023/10/19 04:42:27;;;;;;;;;;;13.60;91.90;;;;;;5062248;28;19925;-81
2023/10/19 04:44:54;;;;;;;;;;;13.60;91.90;;;;;;5069390;28;19909;-81
2023/10/19 04:47:19;;;;;;;;;;;13.60;92.00;;;;;;5062076;28;19916;-80
2023/10/19 04:49:45;;;;;;;;;;;13.60;91.90;;;;;;5056267;28;20052;-81
2023/10/19 04:52:10;;;;;;;;;;;13.60;91.90;;;;;;5061460;28;20367;-82
2023/10/19 04:54:37;;;;;;;;;;;13.60;91.90;;;;;;5072567;28;20005;-81
2023/10/19 04:57:03;;;;;;;;;;;13.50;92.00;;;;;;5062746;28;19916;-82
2023/10/19 04:59:32;;;;;;;;;;;13.50;92.00;;;;;;5063767;28;19927;-82
2023/10/19 05:01:58;;;;;;;;;;;13.60;92.10;;;;;;5055571;28;19913;-84
2023/10/19 05:04:24;;;;;;;;;;;13.60;92.10;;;;;;5055706;28;19912;-84
2023/10/19 05:06:49;;;;;;;;;;;13.60;92.10;;;;;;5050129;28;19921;-81
2023/10/19 05:09:15;;;;;;;;;;;13.60;92.20;;;;;;5052424;28;19967;-82
2023/10/19 05:11:40;;;;;;;;;;;13.60;92.20;;;;;;5052044;28;19920;-82
2023/10/19 05:14:06;;;;;;;;;;;13.60;92.10;;;;;;5062172;28;19987;-81
2023/10/19 05:16:32;;;;;;;;;;;13.60;92.10;;;;;;5054648;28;19917;-82
2023/10/19 05:18:57;;;;;;;;;;;13.60;92.00;;;;;;5051147;28;19912;-80
2023/10/19 05:21:23;;;;;;;;;;;13.70;91.90;;;;;;5057110;28;19966;-81
2023/10/19 05:23:48;;;;;;;;;;;13.70;91.90;;;;;;5054736;28;20281;-82
2023/10/19 05:26:14;;;;;;;;;;;13.60;92.00;;;;;;5059354;28;19913;-80
2023/10/19 05:28:42;;;;;;;;;;;13.60;92.00;;;;;;5076799;28;19934;-83
2023/10/19 05:31:08;;;;;;;;;;;13.60;92.00;;;;;;5070489;28;19932;-80
2023/10/19 05:33:34;;;;;;;;;;;13.60;92.00;;;;;;5055946;28;19920;-85
2023/10/19 05:36:01;;;;;;;;;;;13.60;92.00;;;;;;5053736;28;19913;-83
2023/10/19 05:38:27;;;;;;;;;;;13.60;91.90;;;;;;5060014;28;19928;-82
2023/10/19 05:40:52;;;;;;;;;;;13.70;92.00;;;;;;5050219;28;20326;-82
2023/10/19 05:43:18;;;;;;;;;;;13.70;92.00;;;;;;5057275;28;19920;-84
2023/10/19 05:45:43;;;;;;;;;;;13.70;91.90;;;;;;5062372;28;19920;-85
2023/10/19 05:48:11;;;;;;;;;;;13.80;91.80;;;;;;5053512;28;19919;-83
2023/10/19 05:50:36;;;;;;;;;;;13.60;91.60;;;;;;5053675;28;19932;-83
2023/10/19 05:53:03;;;;;;;;;;;13.60;91.70;;;;;;5052971;28;19913;-84
2023/10/19 05:55:28;;;;;;;;;;;13.60;91.70;;;;;;5053328;28;19921;-84
2023/10/19 05:57:54;;;;;;;;;;;13.60;91.80;;;;;;5051914;28;19980;-84
2023/10/19 06:00:21;;;;;;;;;;;13.60;91.80;;;;;;5052405;28;20012;-84
2023/10/19 06:02:48;;;;;;;;;;;13.50;91.90;;;;;;5061373;28;19913;-84
2023/10/19 06:05:15;;;;;;;;;;;13.50;91.90;;;;;;5086873;28;19927;-86
2023/10/19 06:07:41;;;;;;;;;;;13.60;91.90;;;;;;5067539;28;19916;-84
2023/10/19 06:10:07;;;;;;;;;;;13.50;91.80;;;;;;5069048;28;19921;-85
2023/10/19 06:12:32;;;;;;;;;;;13.50;91.80;;;;;;5065102;28;19951;-84
2023/10/19 06:15:00;;;;;;;;;;;13.50;91.90;;;;;;5065441;28;19936;-84
2023/10/19 06:17:26;;;;;;;;;;;13.50;91.90;;;;;;5067913;28;19927;-84
2023/10/19 06:19:52;;;;;;;;;;;13.50;92.00;;;;;;5077667;28;20368;-85
2023/10/19 06:22:17;;;;;;;;;;;13.60;91.90;;;;;;5065724;28;19916;-83
2023/10/19 06:24:43;;;;;;;;;;;13.50;91.90;;;;;;5065365;28;19967;-83
2023/10/19 06:27:09;;;;;;;;;;;13.60;92.00;;;;;;5059927;28;19958;-79
2023/10/19 06:29:35;;;;;;;;;;;13.60;91.90;;;;;;5058539;28;19913;-83
2023/10/19 06:32:00;;;;;;;;;;;13.60;91.90;;;;;;5070118;28;19913;-82
2023/10/19 06:34:27;;;;;;;;;;;13.60;91.90;;;;;;5064545;28;19959;-83
2023/10/19 06:36:54;;;;;;;;;;;13.60;91.80;;;;;;5060166;28;20003;-83
2023/10/19 06:39:20;;;;;;;;;;;13.70;91.70;;;;;;5067870;28;19933;-83
2023/10/19 06:41:46;;;;;;;;;;;13.60;91.70;;;;;;5051836;28;20421;-82
2023/10/19 06:44:13;;;;;;;;;;;13.70;91.70;;;;;;5057911;28;19912;-83
2023/10/19 06:46:39;;;;;;;;;;;13.70;91.70;;;;;;5062826;28;21007;-84
2023/10/19 06:49:04;;;;;;;;;;;13.80;91.60;;;;;;5055750;28;19912;-82
2023/10/19 06:51:30;;;;;;;;;;;13.70;91.60;;;;;;5062676;28;19913;-81
2023/10/19 06:53:55;;;;;;;;;;;13.80;91.60;;;;;;5055386;28;20347;-83
2023/10/19 06:56:21;;;;;;;;;;;13.70;91.70;;;;;;5051847;28;19917;-81
2023/10/19 06:58:46;;;;;;;;;;;13.80;91.60;;;;;;5050301;28;19921;-81
2023/10/19 07:01:16;;;;;;;;;;;13.80;91.50;;;;;;5051666;28;19916;-85
2023/10/19 07:03:42;;;;;;;;;;;13.80;91.40;;;;;;5054586;28;19912;-86
2023/10/19 07:06:08;;;;;;;;;;;13.80;91.40;;;;;;5069712;28;19916;-82
2023/10/19 07:08:33;;;;;;;;;;;13.80;91.50;;;;;;5061107;28;19917;-82
2023/10/19 07:10:59;;;;;;;;;;;13.90;91.60;;;;;;5061895;28;19908;-83
2023/10/19 07:13:25;;;;;;;;;;;14.00;91.10;;;;;;5066822;28;19917;-83
2023/10/19 07:15:51;;;;;;;;;;;14.00;91.20;;;;;;5061284;28;20374;-83
2023/10/19 07:18:16;;;;;;;;;;;13.90;91.20;;;;;;5063049;28;19917;-82
2023/10/19 07:20:42;;;;;;;;;;;14.00;91.30;;;;;;5059672;28;19909;-83
2023/10/19 07:23:21;;;;;;;;;;;14.00;91.40;;;;;;5059166;28;20008;-83
2023/10/19 07:25:48;;;;;;;;;;;14.00;91.40;;;;;;5053079;28;19970;-82
2023/10/19 07:28:14;;;;;;;;;;;14.00;91.40;;;;;;5060354;28;19966;-81
2023/10/19 07:30:41;;;;;;;;;;;14.00;91.40;;;;;;5077916;28;19970;-83
2023/10/19 07:33:07;;;;;;;;;;;14.10;91.40;;;;;;5066148;28;19960;-83
2023/10/19 07:35:39;;;;;;;;;;;14.10;91.40;;;;;;5065371;28;19947;-83
2023/10/19 07:38:07;;;;;;;;;;;14.10;91.50;;;;;;5071397;28;20000;-83
2023/10/19 07:40:33;;;;;;;;;;;14.10;91.30;;;;;;5064126;28;19916;-84
2023/10/19 07:42:58;;;;;;;;;;;14.10;91.30;;;;;;5073499;28;19919;-83
2023/10/19 07:45:25;;;;;;;;;;;14.20;91.30;;;;;;5074507;28;20362;-83
2023/10/19 07:47:50;;;;;;;;;;;14.10;91.30;;;;;;5066316;28;19917;-82
2023/10/19 07:50:16;;;;;;;;;;;14.20;91.30;;;;;;5057743;28;19917;-80
2023/10/19 07:52:43;;;;;;;;;;;14.20;91.20;;;;;;5066409;28;19996;-81
2023/10/19 07:55:09;;;;;;;;;;;14.20;91.20;;;;;;5067835;28;19920;-82
2023/10/19 07:57:35;;;;;;;;;;;14.20;91.30;;;;;;5066536;28;20540;-82
2023/10/19 08:00:01;;;;;;;;;;;14.30;91.30;;;;;;5054944;28;19920;-82
2023/10/19 08:02:26;;;;;;;;;;;14.30;91.30;;;;;;5060562;28;20325;-81
2023/10/19 08:04:52;;;;;;;;;;;14.30;91.20;;;;;;5063940;28;19999;-82
2023/10/19 08:07:17;;;;;;;;;;;14.30;91.20;;;;;;5061571;28;20434;-80
2023/10/19 08:09:43;;;;;;;;;;;14.20;91.30;;;;;;5062229;28;20282;-82
2023/10/19 08:12:09;;;;;;;;;;;14.20;91.20;;;;;;5061894;28;19917;-81
2023/10/19 08:14:35;;;;;;;;;;;14.20;91.30;;;;;;5057388;28;19916;-82
2023/10/19 08:17:00;;;;;;;;;;;14.30;91.30;;;;;;5064237;28;19924;-81
2023/10/19 08:19:27;;;;;;;;;;;14.30;91.30;;;;;;5065263;28;19923;-82
2023/10/19 08:21:53;;;;;;;;;;;14.50;91.20;;;;;;5066309;28;20378;-82
2023/10/19 08:24:18;;;;;;;;;;;14.50;91.10;;;;;;5081264;28;19976;-81
2023/10/19 08:26:47;;;;;;;;;;;14.60;91.00;;;;;;5080708;28;19909;-83
2023/10/19 08:29:13;;;;;;;;;;;14.60;91.00;;;;;;5068370;28;19912;-83
2023/10/19 08:31:39;;;;;;;;;;;14.70;91.00;;;;;;5071523;28;19908;-83
2023/10/19 08:34:05;;;;;;;;;;;14.80;90.90;;;;;;5054177;28;19912;-84
2023/10/19 08:36:31;;;;;;;;;;;14.80;90.80;;;;;;5076926;28;19948;-82
2023/10/19 08:38:56;;;;;;;;;;;14.80;90.90;;;;;;5083552;28;19920;-82
2023/10/19 08:41:23;;;;;;;;;;;14.90;90.70;;;;;;5087917;28;19913;-84
2023/10/19 08:43:50;;;;;;;;;;;15.00;90.50;;;;;;5070051;28;19999;-83
2023/10/19 08:46:16;;;;;;;;;;;15.00;90.30;;;;;;5068729;28;19913;-83
2023/10/19 08:48:41;;;;;;;;;;;15.00;90.50;;;;;;5072787;28;20053;-83
2023/10/19 08:51:10;;;;;;;;;;;15.00;90.40;;;;;;5057715;28;20307;-83
2023/10/19 08:53:44;;;;;;;;;;;15.10;90.40;;;;;;5057080;28;20498;-84
2023/10/19 08:56:09;;;;;;;;;;;15.20;90.40;;;;;;5058900;28;20403;-84
2023/10/19 08:58:35;;;;;;;;;;;15.30;89.90;;;;;;5057925;28;19936;-84
2023/10/19 09:01:06;;;;;;;;;;;15.40;90.00;;;;;;5070804;28;19913;-83
2023/10/19 09:03:32;;;;;;;;;;;15.40;89.90;;;;;;5057931;28;19970;-83
2023/10/19 09:06:00;;;;;;;;;;;15.50;89.90;;;;;;5074555;28;19916;-86
2023/10/19 09:08:38;;;;;;;;;;;15.40;89.60;;;;;;5067590;28;19916;-84
2023/10/19 09:11:08;;;;;;;;;;;15.50;89.80;;;;;;5057253;28;20263;-84
2023/10/19 09:13:46;;;;;;;;;;;15.40;89.80;;;;;;5066500;28;20428;-83
2023/10/19 09:16:13;;;;;;;;;;;15.50;89.90;;;;;;5053176;28;19984;-84
2023/10/19 09:18:39;;;;;;;;;;;15.70;89.90;;;;;;5059758;28;20366;-83
2023/10/19 09:21:11;;;;;;;;;;;15.80;89.70;;;;;;5059188;28;19913;-84
2023/10/19 09:23:37;;;;;;;;;;;16.00;89.30;;;;;;5057712;28;19968;-84
2023/10/19 09:26:03;;;;;;;;;;;16.00;89.20;;;;;;5053520;28;19967;-84
2023/10/19 09:28:28;;;;;;;;;;;16.00;89.00;;;;;;5055656;28;19913;-84
2023/10/19 09:30:55;;;;;;;;;;;16.00;88.80;;;;;;5062551;28;19908;-84
2023/10/19 09:33:21;;;;;;;;;;;16.00;88.80;;;;;;5055482;28;19909;-83
2023/10/19 09:35:48;;;;;;;;;;;16.10;88.90;;;;;;5061590;28;19913;-84
2023/10/19 09:38:21;;;;;;;;;;;16.00;88.70;;;;;;5057469;28;20397;-84
2023/10/19 09:40:50;;;;;;;;;;;16.00;88.90;;;;;;5059246;28;20321;-84
2023/10/19 09:43:22;;;;;;;;;;;16.10;88.90;;;;;;5054062;28;19924;-83
2023/10/19 09:45:51;;;;;;;;;;;16.00;88.70;;;;;;5049555;28;19919;-82
2023/10/19 09:48:17;;;;;;;;;;;16.00;88.80;;;;;;5062227;28;19920;-83
2023/10/19 09:50:45;;;;;;;;;;;16.10;89.10;;;;;;5055690;28;20405;-81
2023/10/19 09:53:11;;;;;;;;;;;16.20;89.00;;;;;;5056062;28;19912;-82
2023/10/19 09:55:38;;;;;;;;;;;16.30;88.80;;;;;;5051828;28;19974;-82
2023/10/19 09:58:07;;;;;;;;;;;16.50;88.30;;;;;;5060661;28;19928;-83
2023/10/19 10:00:34;;;;;;;;;;;16.80;87.50;;;;;;5060179;28;19917;-82
2023/10/19 10:03:02;;;;;;;;;;;16.80;87.70;;;;;;5060149;28;19920;-84
2023/10/19 10:05:43;;;;;;;;;;;16.80;87.60;;;;;;5054937;28;19913;-84
2023/10/19 10:08:17;;;;;;;;;;;16.80;87.60;;;;;;5052332;28;19913;-85
2023/10/19 10:10:46;;;;;;;;;;;17.00;87.50;;;;;;5056922;28;19924;-85
2023/10/19 10:13:24;;;;;;;;;;;16.90;87.50;;;;;;5066986;28;19947;-84
2023/10/19 10:15:54;;;;;;;;;;;17.10;86.90;;;;;;5071082;28;20335;-85
2023/10/19 10:18:20;;;;;;;;;;;17.20;86.60;;;;;;5058892;28;19920;-84
2023/10/19 10:20:47;;;;;;;;;;;17.30;86.10;;;;;;5067900;28;20293;-85
2023/10/19 10:23:16;;;;;;;;;;;17.10;86.50;;;;;;5061593;28;19947;-85
2023/10/19 10:25:48;;;;;;;;;;;17.10;86.10;;;;;;5056436;28;19952;-84
2023/10/19 10:28:14;;;;;;;;;;;16.90;85.90;;;;;;5055756;28;20289;-84
2023/10/19 10:30:59;;;;;;;;;;;17.00;86.70;;;;;;5075095;28;19979;-80
2023/10/19 10:33:40;;;;;;;;;;;17.20;86.00;;;;;;5073015;28;19920;-82
2023/10/19 10:36:06;;;;;;;;;;;17.10;86.60;;;;;;5065938;28;19916;-82
2023/10/19 10:38:37;;;;;;;;;;;17.10;86.70;;;;;;5072380;28;19927;-83
2023/10/19 10:41:03;;;;;;;;;;;17.20;86.10;;;;;;5063706;28;19911;-81
2023/10/19 10:43:29;;;;;;;;;;;17.20;86.30;;;;;;5068921;28;19908;-80
2023/10/19 10:46:04;;;;;;;;;;;17.30;86.10;;;;;;5077543;28;19935;-77
2023/10/19 10:48:30;;;;;;;;;;;17.30;85.90;;;;;;5080936;28;19995;-81
2023/10/19 10:50:55;;;;;;;;;;;17.30;86.10;;;;;;5077111;28;19916;-82
2023/10/19 10:53:22;;;;;;;;;;;17.50;86.10;;;;;;5062152;28;19912;-82
2023/10/19 10:55:48;;;;;;;;;;;17.40;85.90;;;;;;5056935;28;19909;-83
2023/10/19 10:58:17;;;;;;;;;;;17.40;85.70;;;;;;5063187;28;19916;-82
2023/10/19 11:00:44;;;;;;;;;;;17.50;85.90;;;;;;5070016;28;19912;-84
2023/10/19 11:03:09;;;;;;;;;;;17.60;85.50;;;;;;5073102;28;19909;-84
2023/10/19 11:05:35;;;;;;;;;;;17.60;84.30;;;;;;5066608;28;20356;-84
2023/10/19 11:08:04;;;;;;;;;;;17.60;84.10;;;;;;5079732;28;19908;-84
2023/10/19 11:10:29;;;;;;;;;;;17.60;84.50;;;;;;5071132;28;19915;-84
2023/10/19 11:13:02;;;;;;;;;;;17.60;83.00;;;;;;5074560;28;20368;-84
2023/10/19 11:15:28;;;;;;;;;;;17.60;83.40;;;;;;5064363;28;19909;-83
2023/10/19 11:17:53;;;;;;;;;;;17.50;83.30;;;;;;5076103;28;20317;-83
2023/10/19 11:20:22;;;;;;;;;;;17.60;83.70;;;;;;5071261;28;19956;-82
2023/10/19 11:22:49;;;;;;;;;;;17.60;83.30;;;;;;5057466;28;20405;-84
2023/10/19 11:25:23;;;;;;;;;;;17.60;83.00;;;;;;5065045;28;19913;-82
2023/10/19 11:27:48;;;;;;;;;;;17.60;83.40;;;;;;5069092;28;20427;-83
2023/10/19 11:30:22;;;;;;;;;;;17.60;83.90;;;;;;5077196;28;19909;-83
2023/10/19 11:32:47;;;;;;;;;;;17.60;83.90;;;;;;5080986;28;19923;-83
2023/10/19 11:35:13;;;;;;;;;;;17.60;83.80;;;;;;5093052;28;19909;-82
2023/10/19 11:37:48;;;;;;;;;;;17.60;81.90;;;;;;5084721;28;19924;-82
2023/10/19 11:40:14;;;;;;;;;;;17.70;80.90;;;;;;5069475;28;19913;-83
2023/10/19 11:42:40;;;;;;;;;;;17.80;81.00;;;;;;5061109;28;19908;-83
2023/10/19 11:45:06;;;;;;;;;;;17.90;79.50;;;;;;5067741;28;19896;-81
2023/10/19 11:47:31;;;;;;;;;;;17.80;80.80;;;;;;5076619;28;20016;-81
2023/10/19 11:49:57;;;;;;;;;;;17.90;81.40;;;;;;5076299;28;19967;-83
2023/10/19 11:52:23;;;;;;;;;;;17.80;82.20;;;;;;5059624;28;19909;-83
2023/10/19 11:54:48;;;;;;;;;;;17.90;82.60;;;;;;5059871;28;19917;-83
2023/10/19 11:57:14;;;;;;;;;;;17.80;82.10;;;;;;5060388;28;19913;-83
2023/10/19 11:59:40;;;;;;;;;;;17.90;82.00;;;;;;5058605;28;19913;-84
2023/10/19 12:02:06;;;;;;;;;;;17.90;81.50;;;;;;5057729;28;19916;-84
2023/10/19 12:04:35;;;;;;;;;;;18.00;79.70;;;;;;5059670;28;19948;-85
2023/10/19 12:07:01;;;;;;;;;;;18.00;79.80;;;;;;5057960;28;19917;-84
2023/10/19 12:09:28;;;;;;;;;;;18.10;80.60;;;;;;5059722;28;19920;-84
2023/10/19 12:11:54;;;;;;;;;;;18.10;80.70;;;;;;5055294;28;19967;-84
2023/10/19 12:14:21;;;;;;;;;;;18.10;79.60;;;;;;5057236;28;19913;-84
2023/10/19 12:16:46;;;;;;;;;;;18.00;80.20;;;;;;5057797;28;19963;-84
2023/10/19 12:19:14;;;;;;;;;;;18.00;80.70;;;;;;5058018;28;19913;-84
2023/10/19 12:21:41;;;;;;;;;;;17.90;80.80;;;;;;5056680;28;20386;-82
2023/10/19 12:24:07;;;;;;;;;;;17.90;80.60;;;;;;5056541;28;19917;-83
2023/10/19 12:26:33;;;;;;;;;;;17.80;80.80;;;;;;5055925;28;19913;-84
2023/10/19 12:28:58;;;;;;;;;;;17.80;81.50;;;;;;5057120;28;19948;-82
2023/10/19 12:31:25;;;;;;;;;;;17.80;82.00;;;;;;5058707;28;19908;-83
2023/10/19 12:33:50;;;;;;;;;;;17.80;81.60;;;;;;5058082;28;19999;-83
2023/10/19 12:38:57;;;;;;;;;;;17.80;81.70;;;;;;5058878;28;19917;-82
2023/10/19 12:41:22;;;;;;;;;;;17.80;81.00;;;;;;5055098;28;19914;-82
2023/10/19 12:43:48;;;;;;;;;;;17.90;81.00;;;;;;5055129;28;20628;-82
2023/10/19 12:46:14;;;;;;;;;;;17.80;81.10;;;;;;5054055;28;19939;-82
2023/10/19 12:48:40;;;;;;;;;;;18.00;79.20;;;;;;5055024;28;19975;-82
2023/10/19 12:51:11;;;;;;;;;;;18.10;79.30;;;;;;5052437;28;19917;-82
2023/10/19 12:53:38;;;;;;;;;;;18.00;80.50;;;;;;5049963;28;19932;-82
2023/10/19 12:56:04;;;;;;;;;;;18.10;79.90;;;;;;5052663;28;19913;-82
2023/10/19 12:58:31;;;;;;;;;;;18.10;79.70;;;;;;5047987;28;19924;-82
2023/10/19 13:00:58;;;;;;;;;;;18.20;79.40;;;;;;5053646;28;19920;-83
2023/10/19 13:03:27;;;;;;;;;;;18.10;80.20;;;;;;5051315;28;19913;-83
2023/10/19 13:05:53;;;;;;;;;;;18.10;79.80;;;;;;5063215;28;19940;-82
2023/10/19 13:08:18;;;;;;;;;;;17.90;80.50;;;;;;5073987;28;19907;-80
2023/10/19 13:10:45;;;;;;;;;;;17.80;81.50;;;;;;5069452;28;20381;-82
2023/10/19 13:13:11;;;;;;;;;;;17.70;81.80;;;;;;5056871;28;19921;-81
2023/10/19 13:15:37;;;;;;;;;;;17.60;82.20;;;;;;5059475;28;19927;-81
2023/10/19 13:18:05;;;;;;;;;;;17.60;82.20;;;;;;5057496;28;20007;-83
2023/10/19 13:20:34;;;;;;;;;;;17.50;82.80;;;;;;5057576;28;19963;-81
2023/10/19 13:23:00;;;;;;;;;;;17.60;82.50;;;;;;5054884;28;19917;-83
2023/10/19 13:25:38;;;;;;;;;;;17.50;82.80;;;;;;5057998;28;19920;-83
2023/10/19 13:28:10;;;;;;;;;;;17.50;83.20;;;;;;5056912;28;19956;-83
2023/10/19 13:30:37;;;;;;;;;;;17.40;83.80;;;;;;5055883;28;20428;-83
2023/10/19 13:33:05;;;;;;;;;;;17.40;83.90;;;;;;5060076;28;20396;-83
2023/10/19 13:35:30;;;;;;;;;;;17.50;84.00;;;;;;5056853;28;19913;-81
2023/10/19 13:37:56;;;;;;;;;;;17.50;83.60;;;;;;5051382;28;20411;-83
2023/10/19 13:40:23;;;;;;;;;;;17.40;83.90;;;;;;5051584;28;19913;-82
2023/10/19 13:42:49;;;;;;;;;;;17.50;83.10;;;;;;5050719;28;19971;-82
2023/10/19 13:45:14;;;;;;;;;;;17.40;83.20;;;;;;5061488;28;19920;-82
2023/10/19 13:47:40;;;;;;;;;;;17.40;83.50;;;;;;5051849;28;19986;-82
2023/10/19 13:50:07;;;;;;;;;;;17.30;83.40;;;;;;5050712;28;19920;-81
2023/10/19 13:52:32;;;;;;;;;;;17.40;83.20;;;;;;5049319;28;20030;-83
2023/10/19 13:54:58;;;;;;;;;;;17.40;83.40;;;;;;5052991;28;19971;-82
2023/10/19 13:57:23;;;;;;;;;;;17.40;83.60;;;;;;5052440;28;20431;-83
2023/10/19 13:59:49;;;;;;;;;;;17.40;83.50;;;;;;5049895;28;19943;-83
2023/10/19 14:02:14;;;;;;;;;;;17.30;83.90;;;;;;5051021;28;19919;-83
2023/10/19 14:04:40;;;;;;;;;;;17.30;84.30;;;;;;5051967;28;19959;-82
2023/10/19 14:07:05;;;;;;;;;;;17.40;84.40;;;;;;5050142;28;19920;-82
2023/10/19 14:09:31;;;;;;;;;;;17.30;84.60;;;;;;5052855;28;19913;-83
2023/10/19 14:11:57;;;;;;;;;;;17.20;85.00;;;;;;5052196;28;19966;-81
2023/10/19 14:14:23;;;;;;;;;;;17.20;85.30;;;;;;5052538;28;20333;-81
2023/10/19 14:16:50;;;;;;;;;;;17.20;85.60;;;;;;5052932;28;20003;-81
2023/10/19 14:19:16;;;;;;;;;;;17.10;85.60;;;;;;5051800;28;19913;-82
2023/10/19 14:21:44;;;;;;;;;;;17.10;86.00;;;;;;5052785;28;19912;-81
2023/10/19 14:24:10;;;;;;;;;;;17.10;86.40;;;;;;5052070;28;19958;-82
2023/10/19 14:26:35;;;;;;;;;;;17.10;86.40;;;;;;5054376;28;19909;-82
2023/10/19 14:29:01;;;;;;;;;;;17.00;86.80;;;;;;5051394;28;19983;-83
2023/10/19 14:31:26;;;;;;;;;;;17.10;86.90;;;;;;5051725;28;19917;-82
2023/10/19 14:33:52;;;;;;;;;;;17.10;86.70;;;;;;5052399;28;20381;-82
2023/10/19 14:36:18;;;;;;;;;;;17.10;86.90;;;;;;5052046;28;20297;-82
2023/10/19 14:38:46;;;;;;;;;;;17.10;87.00;;;;;;5052190;28;19916;-83
2023/10/19 14:41:11;;;;;;;;;;;17.20;87.30;;;;;;5052488;28;19916;-83
2023/10/19 14:43:37;;;;;;;;;;;17.20;87.10;;;;;;5049313;28;20282;-81